North Newton, Kansas
Current Conditions -  °F | °C
As of 11:15 AM on Sunday 28 Dec 2014 (Local Time) from KEWK Reporting Station
Clear Clear  
Wind Chill: 29°   Ceiling: Unl
Heat Index: 36°   Visibility: 10mi
Dew Point: 21°   Wind: 8mph
Humidity: 56%   Direction: 220°SW
Pressure: 30.2"   Gusts: NA
Location:  38.07°N, 97.35°W
Report Text: KEWK 281715Z AUTO 22007KT 10SM CLR 02/M06 A3020 RMK AO1
Loading
Personal Weather Stations






























Interactive Weather Map New forecast layout! Learn more

10-Day Weather Forecast

Advertisements
Track Severe Weather on mobile